sensor_id;sensor_type;location;lat;lon;timestamp;P1;P2;P0
64229;PMS5003;50547;49.498;0.092;2023-06-10T00:00:05;14;14;
64229;PMS5003;50547;49.498;0.092;2023-06-10T00:02:35;14;14;
64229;PMS5003;50547;49.498;0.092;2023-06-10T00:05:04;14;14;
64229;PMS5003;50547;49.498;0.092;2023-06-10T00:07:34;13;13;
64229;PMS5003;50547;49.498;0.092;2023-06-10T00:10:03;14;14;
64229;PMS5003;50547;49.498;0.092;2023-06-10T00:12:32;14;14;
64229;PMS5003;50547;49.498;0.092;2023-06-10T00:15:02;14;14;
64229;PMS5003;50547;49.498;0.092;2023-06-10T00:17:31;14;14;
64229;PMS5003;50547;49.498;0.092;2023-06-10T00:20:00;14;14;
64229;PMS5003;50547;49.498;0.092;2023-06-10T00:22:29;14;14;
64229;PMS5003;50547;49.498;0.092;2023-06-10T00:24:58;14;14;
64229;PMS5003;50547;49.498;0.092;2023-06-10T00:27:27;14;14;
64229;PMS5003;50547;49.498;0.092;2023-06-10T00:29:56;14;14;
64229;PMS5003;50547;49.498;0.092;2023-06-10T00:32:25;14;14;
64229;PMS5003;50547;49.498;0.092;2023-06-10T00:34:54;14;14;
64229;PMS5003;50547;49.498;0.092;2023-06-10T00:37:23;14;14;
64229;PMS5003;50547;49.498;0.092;2023-06-10T00:39:52;14;14;
64229;PMS5003;50547;49.498;0.092;2023-06-10T00:42:21;13;13;
64229;PMS5003;50547;49.498;0.092;2023-06-10T00:44:48;14;14;
64229;PMS5003;50547;49.498;0.092;2023-06-10T00:47:17;13;13;
64229;PMS5003;50547;49.498;0.092;2023-06-10T00:49:47;13;13;
64229;PMS5003;50547;49.498;0.092;2023-06-10T00:52:15;13;13;
64229;PMS5003;50547;49.498;0.092;2023-06-10T00:54:45;13;13;
64229;PMS5003;50547;49.498;0.092;2023-06-10T00:57:15;13;13;
64229;PMS5003;50547;49.498;0.092;2023-06-10T00:59:43;13;13;
64229;PMS5003;50547;49.498;0.092;2023-06-10T01:02:16;18;16;
64229;PMS5003;50547;49.498;0.092;2023-06-10T01:04:44;19;17;
64229;PMS5003;50547;49.498;0.092;2023-06-10T01:07:15;20;17;
64229;PMS5003;50547;49.498;0.092;2023-06-10T01:09:54;19;17;
64229;PMS5003;50547;49.498;0.092;2023-06-10T01:12:30;20;17;
64229;PMS5003;50547;49.498;0.092;2023-06-10T01:15:03;20;17;
64229;PMS5003;50547;49.498;0.092;2023-06-10T01:17:33;20;17;
64229;PMS5003;50547;49.498;0.092;2023-06-10T01:20:02;19;17;
64229;PMS5003;50547;49.498;0.092;2023-06-10T01:22:31;19;17;
64229;PMS5003;50547;49.498;0.092;2023-06-10T01:25:00;20;17;
64229;PMS5003;50547;49.498;0.092;2023-06-10T01:27:30;19;17;
64229;PMS5003;50547;49.498;0.092;2023-06-10T01:30:04;20;17;
64229;PMS5003;50547;49.498;0.092;2023-06-10T01:32:40;20;17;
64229;PMS5003;50547;49.498;0.092;2023-06-10T01:35:13;19;17;
64229;PMS5003;50547;49.498;0.092;2023-06-10T01:37:45;20;17;
64229;PMS5003;50547;49.498;0.092;2023-06-10T01:40:17;20;17;
64229;PMS5003;50547;49.498;0.092;2023-06-10T01:42:46;20;17;
64229;PMS5003;50547;49.498;0.092;2023-06-10T01:45:15;20;17;
64229;PMS5003;50547;49.498;0.092;2023-06-10T01:47:44;20;17;
64229;PMS5003;50547;49.498;0.092;2023-06-10T01:50:13;20;17;
64229;PMS5003;50547;49.498;0.092;2023-06-10T01:52:42;20;17;
64229;PMS5003;50547;49.498;0.092;2023-06-10T01:55:11;20;17;
64229;PMS5003;50547;49.498;0.092;2023-06-10T01:57:40;21;18;
64229;PMS5003;50547;49.498;0.092;2023-06-10T02:00:10;20;17;
64229;PMS5003;50547;49.498;0.092;2023-06-10T02:02:40;20;17;
64229;PMS5003;50547;49.498;0.092;2023-06-10T02:05:09;20;17;
64229;PMS5003;50547;49.498;0.092;2023-06-10T02:07:38;22;19;
64229;PMS5003;50547;49.498;0.092;2023-06-10T02:10:07;21;18;
64229;PMS5003;50547;49.498;0.092;2023-06-10T02:12:37;21;18;
64229;PMS5003;50547;49.498;0.092;2023-06-10T02:15:06;20;17;
64229;PMS5003;50547;49.498;0.092;2023-06-10T02:17:35;21;18;
64229;PMS5003;50547;49.498;0.092;2023-06-10T02:20:04;20;17;
64229;PMS5003;50547;49.498;0.092;2023-06-10T02:22:34;20;17;
64229;PMS5003;50547;49.498;0.092;2023-06-10T02:25:03;20;17;
64229;PMS5003;50547;49.498;0.092;2023-06-10T02:27:33;21;18;
64229;PMS5003;50547;49.498;0.092;2023-06-10T02:30:02;20;17;
64229;PMS5003;50547;49.498;0.092;2023-06-10T02:32:32;20;17;
64229;PMS5003;50547;49.498;0.092;2023-06-10T02:35:01;20;17;
64229;PMS5003;50547;49.498;0.092;2023-06-10T02:37:30;20;17;
64229;PMS5003;50547;49.498;0.092;2023-06-10T02:39:59;19;17;
64229;PMS5003;50547;49.498;0.092;2023-06-10T02:42:28;20;17;
64229;PMS5003;50547;49.498;0.092;2023-06-10T02:44:57;20;17;
64229;PMS5003;50547;49.498;0.092;2023-06-10T02:47:26;19;17;
64229;PMS5003;50547;49.498;0.092;2023-06-10T02:49:55;21;18;
64229;PMS5003;50547;49.498;0.092;2023-06-10T02:52:24;19;17;
64229;PMS5003;50547;49.498;0.092;2023-06-10T02:54:53;20;17;
64229;PMS5003;50547;49.498;0.092;2023-06-10T02:57:22;19;17;
64229;PMS5003;50547;49.498;0.092;2023-06-10T02:59:51;20;17;
64229;PMS5003;50547;49.498;0.092;2023-06-10T03:02:20;21;18;
64229;PMS5003;50547;49.498;0.092;2023-06-10T03:04:49;20;17;
64229;PMS5003;50547;49.498;0.092;2023-06-10T03:07:18;20;17;
64229;PMS5003;50547;49.498;0.092;2023-06-10T03:09:47;20;17;
64229;PMS5003;50547;49.498;0.092;2023-06-10T03:12:16;20;17;
64229;PMS5003;50547;49.498;0.092;2023-06-10T03:14:45;20;17;
64229;PMS5003;50547;49.498;0.092;2023-06-10T03:17:14;20;17;
64229;PMS5003;50547;49.498;0.092;2023-06-10T03:19:43;21;18;
64229;PMS5003;50547;49.498;0.092;2023-06-10T03:22:12;20;17;
64229;PMS5003;50547;49.498;0.092;2023-06-10T03:24:43;20;17;
64229;PMS5003;50547;49.498;0.092;2023-06-10T03:27:12;20;17;
64229;PMS5003;50547;49.498;0.092;2023-06-10T03:29:41;20;17;
64229;PMS5003;50547;49.498;0.092;2023-06-10T03:32:10;20;17;
64229;PMS5003;50547;49.498;0.092;2023-06-10T03:34:40;20;17;
64229;PMS5003;50547;49.498;0.092;2023-06-10T03:37:09;21;18;
64229;PMS5003;50547;49.498;0.092;2023-06-10T03:39:38;20;17;
64229;PMS5003;50547;49.498;0.092;2023-06-10T03:42:07;22;19;
64229;PMS5003;50547;49.498;0.092;2023-06-10T03:44:36;22;19;
64229;PMS5003;50547;49.498;0.092;2023-06-10T03:47:06;20;17;
64229;PMS5003;50547;49.498;0.092;2023-06-10T03:49:35;22;19;
64229;PMS5003;50547;49.498;0.092;2023-06-10T03:52:04;21;18;
64229;PMS5003;50547;49.498;0.092;2023-06-10T03:54:33;22;19;
64229;PMS5003;50547;49.498;0.092;2023-06-10T03:57:03;21;18;
64229;PMS5003;50547;49.498;0.092;2023-06-10T03:59:32;21;18;
64229;PMS5003;50547;49.498;0.092;2023-06-10T04:02:01;21;18;
64229;PMS5003;50547;49.498;0.092;2023-06-10T04:04:30;21;18;
64229;PMS5003;50547;49.498;0.092;2023-06-10T04:06:59;22;19;
64229;PMS5003;50547;49.498;0.092;2023-06-10T04:09:28;22;19;
64229;PMS5003;50547;49.498;0.092;2023-06-10T04:11:57;20;17;
64229;PMS5003;50547;49.498;0.092;2023-06-10T04:14:26;21;18;
64229;PMS5003;50547;49.498;0.092;2023-06-10T04:16:55;22;19;
64229;PMS5003;50547;49.498;0.092;2023-06-10T04:19:24;20;17;
64229;PMS5003;50547;49.498;0.092;2023-06-10T04:21:53;22;19;
64229;PMS5003;50547;49.498;0.092;2023-06-10T04:24:22;20;17;
64229;PMS5003;50547;49.498;0.092;2023-06-10T04:26:51;20;17;
64229;PMS5003;50547;49.498;0.092;2023-06-10T04:29:20;20;17;
64229;PMS5003;50547;49.498;0.092;2023-06-10T04:31:49;21;18;
64229;PMS5003;50547;49.498;0.092;2023-06-10T04:34:18;22;19;
64229;PMS5003;50547;49.498;0.092;2023-06-10T04:36:47;22;19;
64229;PMS5003;50547;49.498;0.092;2023-06-10T04:39:16;21;18;
64229;PMS5003;50547;49.498;0.092;2023-06-10T04:41:45;20;17;
64229;PMS5003;50547;49.498;0.092;2023-06-10T04:44:14;21;18;
64229;PMS5003;50547;49.498;0.092;2023-06-10T04:46:43;20;17;
64229;PMS5003;50547;49.498;0.092;2023-06-10T04:49:13;21;18;
64229;PMS5003;50547;49.498;0.092;2023-06-10T04:51:42;22;19;
64229;PMS5003;50547;49.498;0.092;2023-06-10T04:54:11;21;18;
64229;PMS5003;50547;49.498;0.092;2023-06-10T04:56:40;21;18;
64229;PMS5003;50547;49.498;0.092;2023-06-10T04:59:09;20;17;
64229;PMS5003;50547;49.498;0.092;2023-06-10T05:01:38;21;18;
64229;PMS5003;50547;49.498;0.092;2023-06-10T05:04:07;22;19;
64229;PMS5003;50547;49.498;0.092;2023-06-10T05:06:36;20;17;
64229;PMS5003;50547;49.498;0.092;2023-06-10T05:09:05;25;22;
64229;PMS5003;50547;49.498;0.092;2023-06-10T05:11:34;22;19;
64229;PMS5003;50547;49.498;0.092;2023-06-10T05:14:03;23;20;
64229;PMS5003;50547;49.498;0.092;2023-06-10T05:16:32;22;19;
64229;PMS5003;50547;49.498;0.092;2023-06-10T05:19:01;21;18;
64229;PMS5003;50547;49.498;0.092;2023-06-10T05:21:30;22;19;
64229;PMS5003;50547;49.498;0.092;2023-06-10T05:23:59;22;19;
64229;PMS5003;50547;49.498;0.092;2023-06-10T05:26:28;22;19;
64229;PMS5003;50547;49.498;0.092;2023-06-10T05:28:57;22;19;
64229;PMS5003;50547;49.498;0.092;2023-06-10T05:31:26;22;19;
64229;PMS5003;50547;49.498;0.092;2023-06-10T05:33:54;21;18;
64229;PMS5003;50547;49.498;0.092;2023-06-10T05:36:24;21;18;
64229;PMS5003;50547;49.498;0.092;2023-06-10T05:38:53;22;19;
64229;PMS5003;50547;49.498;0.092;2023-06-10T05:41:22;21;18;
64229;PMS5003;50547;49.498;0.092;2023-06-10T05:43:52;21;18;
64229;PMS5003;50547;49.498;0.092;2023-06-10T05:46:21;21;18;
64229;PMS5003;50547;49.498;0.092;2023-06-10T05:48:50;20;17;
64229;PMS5003;50547;49.498;0.092;2023-06-10T05:51:19;21;18;
64229;PMS5003;50547;49.498;0.092;2023-06-10T05:53:48;21;18;
64229;PMS5003;50547;49.498;0.092;2023-06-10T05:56:17;20;17;
64229;PMS5003;50547;49.498;0.092;2023-06-10T05:58:46;20;17;
64229;PMS5003;50547;49.498;0.092;2023-06-10T06:01:15;21;18;
64229;PMS5003;50547;49.498;0.092;2023-06-10T06:03:44;20;17;
64229;PMS5003;50547;49.498;0.092;2023-06-10T06:06:13;21;18;
64229;PMS5003;50547;49.498;0.092;2023-06-10T06:08:42;22;19;
64229;PMS5003;50547;49.498;0.092;2023-06-10T06:11:11;21;18;
64229;PMS5003;50547;49.498;0.092;2023-06-10T06:13:40;22;19;
64229;PMS5003;50547;49.498;0.092;2023-06-10T06:16:09;20;17;
64229;PMS5003;50547;49.498;0.092;2023-06-10T06:18:38;22;19;
64229;PMS5003;50547;49.498;0.092;2023-06-10T06:21:07;20;17;
64229;PMS5003;50547;49.498;0.092;2023-06-10T06:23:37;20;17;
64229;PMS5003;50547;49.498;0.092;2023-06-10T06:26:06;20;17;
64229;PMS5003;50547;49.498;0.092;2023-06-10T06:28:35;20;17;
64229;PMS5003;50547;49.498;0.092;2023-06-10T06:31:04;20;17;
64229;PMS5003;50547;49.498;0.092;2023-06-10T06:33:33;20;17;
64229;PMS5003;50547;49.498;0.092;2023-06-10T06:36:02;20;17;
64229;PMS5003;50547;49.498;0.092;2023-06-10T06:38:31;19;17;
64229;PMS5003;50547;49.498;0.092;2023-06-10T06:41:00;20;17;
64229;PMS5003;50547;49.498;0.092;2023-06-10T06:43:29;18;16;
64229;PMS5003;50547;49.498;0.092;2023-06-10T06:45:58;19;17;
64229;PMS5003;50547;49.498;0.092;2023-06-10T06:48:27;20;17;
64229;PMS5003;50547;49.498;0.092;2023-06-10T06:50:56;20;17;
64229;PMS5003;50547;49.498;0.092;2023-06-10T06:53:23;21;18;
64229;PMS5003;50547;49.498;0.092;2023-06-10T06:55:52;20;17;
64229;PMS5003;50547;49.498;0.092;2023-06-10T06:58:21;20;17;
64229;PMS5003;50547;49.498;0.092;2023-06-10T07:00:50;20;17;
64229;PMS5003;50547;49.498;0.092;2023-06-10T07:03:19;20;17;
64229;PMS5003;50547;49.498;0.092;2023-06-10T07:05:45;19;17;
64229;PMS5003;50547;49.498;0.092;2023-06-10T07:08:14;20;17;
64229;PMS5003;50547;49.498;0.092;2023-06-10T07:10:43;19;17;
64229;PMS5003;50547;49.498;0.092;2023-06-10T07:13:12;20;17;
64229;PMS5003;50547;49.498;0.092;2023-06-10T07:15:41;20;17;
64229;PMS5003;50547;49.498;0.092;2023-06-10T07:18:10;20;17;
64229;PMS5003;50547;49.498;0.092;2023-06-10T07:20:39;19;17;
64229;PMS5003;50547;49.498;0.092;2023-06-10T07:23:08;18;16;
64229;PMS5003;50547;49.498;0.092;2023-06-10T07:25:37;18;16;
64229;PMS5003;50547;49.498;0.092;2023-06-10T07:28:06;18;16;
64229;PMS5003;50547;49.498;0.092;2023-06-10T07:30:34;18;16;
64229;PMS5003;50547;49.498;0.092;2023-06-10T07:33:03;18;16;
64229;PMS5003;50547;49.498;0.092;2023-06-10T07:35:32;18;16;
64229;PMS5003;50547;49.498;0.092;2023-06-10T07:38:01;18;16;
64229;PMS5003;50547;49.498;0.092;2023-06-10T07:40:40;19;17;
64229;PMS5003;50547;49.498;0.092;2023-06-10T07:43:09;18;16;
64229;PMS5003;50547;49.498;0.092;2023-06-10T07:45:39;19;17;
64229;PMS5003;50547;49.498;0.092;2023-06-10T07:48:08;19;17;
64229;PMS5003;50547;49.498;0.092;2023-06-10T07:50:37;18;16;
64229;PMS5003;50547;49.498;0.092;2023-06-10T07:53:06;18;16;
64229;PMS5003;50547;49.498;0.092;2023-06-10T07:55:35;18;16;
64229;PMS5003;50547;49.498;0.092;2023-06-10T07:58:04;18;16;
64229;PMS5003;50547;49.498;0.092;2023-06-10T08:00:33;18;16;
64229;PMS5003;50547;49.498;0.092;2023-06-10T08:03:02;18;16;
64229;PMS5003;50547;49.498;0.092;2023-06-10T08:05:32;20;17;
64229;PMS5003;50547;49.498;0.092;2023-06-10T08:08:02;20;17;
64229;PMS5003;50547;49.498;0.092;2023-06-10T08:10:32;19;17;
64229;PMS5003;50547;49.498;0.092;2023-06-10T08:13:01;20;17;
64229;PMS5003;50547;49.498;0.092;2023-06-10T08:15:30;20;17;
64229;PMS5003;50547;49.498;0.092;2023-06-10T08:17:57;20;17;
64229;PMS5003;50547;49.498;0.092;2023-06-10T08:20:26;21;18;
64229;PMS5003;50547;49.498;0.092;2023-06-10T08:22:55;22;19;
64229;PMS5003;50547;49.498;0.092;2023-06-10T08:25:24;22;19;
64229;PMS5003;50547;49.498;0.092;2023-06-10T08:27:53;20;17;
64229;PMS5003;50547;49.498;0.092;2023-06-10T08:30:23;22;19;
64229;PMS5003;50547;49.498;0.092;2023-06-10T08:32:52;21;18;
64229;PMS5003;50547;49.498;0.092;2023-06-10T08:35:21;20;17;
64229;PMS5003;50547;49.498;0.092;2023-06-10T08:37:50;22;19;
64229;PMS5003;50547;49.498;0.092;2023-06-10T08:40:19;22;19;
64229;PMS5003;50547;49.498;0.092;2023-06-10T08:42:49;21;18;
64229;PMS5003;50547;49.498;0.092;2023-06-10T08:45:29;20;17;
64229;PMS5003;50547;49.498;0.092;2023-06-10T08:47:59;21;18;
64229;PMS5003;50547;49.498;0.092;2023-06-10T08:50:30;22;19;
64229;PMS5003;50547;49.498;0.092;2023-06-10T08:53:00;21;18;
64229;PMS5003;50547;49.498;0.092;2023-06-10T08:55:31;22;19;
64229;PMS5003;50547;49.498;0.092;2023-06-10T08:58:02;20;17;
64229;PMS5003;50547;49.498;0.092;2023-06-10T09:00:32;21;18;
64229;PMS5003;50547;49.498;0.092;2023-06-10T09:03:03;22;19;
64229;PMS5003;50547;49.498;0.092;2023-06-10T09:05:33;22;19;
64229;PMS5003;50547;49.498;0.092;2023-06-10T09:08:03;20;17;
64229;PMS5003;50547;49.498;0.092;2023-06-10T09:10:35;21;18;
64229;PMS5003;50547;49.498;0.092;2023-06-10T09:13:04;22;19;
64229;PMS5003;50547;49.498;0.092;2023-06-10T09:15:34;21;18;
64229;PMS5003;50547;49.498;0.092;2023-06-10T09:18:03;20;17;
64229;PMS5003;50547;49.498;0.092;2023-06-10T09:20:32;21;18;
64229;PMS5003;50547;49.498;0.092;2023-06-10T09:23:01;20;17;
64229;PMS5003;50547;49.498;0.092;2023-06-10T09:25:34;21;18;
64229;PMS5003;50547;49.498;0.092;2023-06-10T09:28:15;22;19;
64229;PMS5003;50547;49.498;0.092;2023-06-10T09:30:44;22;19;
64229;PMS5003;50547;49.498;0.092;2023-06-10T09:33:14;22;19;
64229;PMS5003;50547;49.498;0.092;2023-06-10T09:35:45;23;20;
64229;PMS5003;50547;49.498;0.092;2023-06-10T09:38:19;22;19;
64229;PMS5003;50547;49.498;0.092;2023-06-10T09:40:50;23;20;
64229;PMS5003;50547;49.498;0.092;2023-06-10T09:43:20;23;20;
64229;PMS5003;50547;49.498;0.092;2023-06-10T09:45:50;22;19;
64229;PMS5003;50547;49.498;0.092;2023-06-10T09:48:16;23;20;
64229;PMS5003;50547;49.498;0.092;2023-06-10T09:50:45;22;19;
64229;PMS5003;50547;49.498;0.092;2023-06-10T09:53:16;22;19;
64229;PMS5003;50547;49.498;0.092;2023-06-10T09:55:46;23;20;
64229;PMS5003;50547;49.498;0.092;2023-06-10T09:58:15;22;19;
64229;PMS5003;50547;49.498;0.092;2023-06-10T10:00:44;23;20;
64229;PMS5003;50547;49.498;0.092;2023-06-10T10:03:22;23;20;
64229;PMS5003;50547;49.498;0.092;2023-06-10T10:05:57;23;20;
64229;PMS5003;50547;49.498;0.092;2023-06-10T10:08:27;22;19;
64229;PMS5003;50547;49.498;0.092;2023-06-10T10:10:56;22;19;
64229;PMS5003;50547;49.498;0.092;2023-06-10T10:13:26;22;19;
64229;PMS5003;50547;49.498;0.092;2023-06-10T10:15:57;22;19;
64229;PMS5003;50547;49.498;0.092;2023-06-10T10:18:30;22;19;
64229;PMS5003;50547;49.498;0.092;2023-06-10T10:21:01;22;19;
64229;PMS5003;50547;49.498;0.092;2023-06-10T10:23:42;22;19;
64229;PMS5003;50547;49.498;0.092;2023-06-10T10:26:17;22;19;
64229;PMS5003;50547;49.498;0.092;2023-06-10T10:28:51;26;23;
64229;PMS5003;50547;49.498;0.092;2023-06-10T10:31:27;29;25;
64229;PMS5003;50547;49.498;0.092;2023-06-10T10:34:02;31;27;
64229;PMS5003;50547;49.498;0.092;2023-06-10T10:36:35;28;24;
64229;PMS5003;50547;49.498;0.092;2023-06-10T10:39:05;24;21;
64229;PMS5003;50547;49.498;0.092;2023-06-10T10:41:34;24;21;
64229;PMS5003;50547;49.498;0.092;2023-06-10T10:44:06;25;22;
64229;PMS5003;50547;49.498;0.092;2023-06-10T10:46:41;28;24;
64229;PMS5003;50547;49.498;0.092;2023-06-10T10:49:17;28;24;
64229;PMS5003;50547;49.498;0.092;2023-06-10T10:51:56;26;23;
64229;PMS5003;50547;49.498;0.092;2023-06-10T10:54:30;23;20;
64229;PMS5003;50547;49.498;0.092;2023-06-10T10:57:17;23;20;
64229;PMS5003;50547;49.498;0.092;2023-06-10T10:59:55;25;22;
64229;PMS5003;50547;49.498;0.092;2023-06-10T11:02:41;26;23;
64229;PMS5003;50547;49.498;0.092;2023-06-10T11:05:12;25;22;
64229;PMS5003;50547;49.498;0.092;2023-06-10T11:07:51;24;21;
64229;PMS5003;50547;49.498;0.092;2023-06-10T11:10:29;22;19;
64229;PMS5003;50547;49.498;0.092;2023-06-10T11:12:59;22;19;
64229;PMS5003;50547;49.498;0.092;2023-06-10T11:15:28;22;19;
64229;PMS5003;50547;49.498;0.092;2023-06-10T11:18:15;21;18;
64229;PMS5003;50547;49.498;0.092;2023-06-10T11:20:57;22;19;
64229;PMS5003;50547;49.498;0.092;2023-06-10T11:23:38;23;20;
64229;PMS5003;50547;49.498;0.092;2023-06-10T11:26:12;22;19;
64229;PMS5003;50547;49.498;0.092;2023-06-10T11:29:01;22;19;
64229;PMS5003;50547;49.498;0.092;2023-06-10T11:31:33;23;20;
64229;PMS5003;50547;49.498;0.092;2023-06-10T11:34:07;23;20;
64229;PMS5003;50547;49.498;0.092;2023-06-10T11:36:38;24;21;
64229;PMS5003;50547;49.498;0.092;2023-06-10T11:39:08;23;20;
64229;PMS5003;50547;49.498;0.092;2023-06-10T11:41:38;23;20;
64229;PMS5003;50547;49.498;0.092;2023-06-10T11:44:09;23;20;
64229;PMS5003;50547;49.498;0.092;2023-06-10T11:46:39;23;20;
64229;PMS5003;50547;49.498;0.092;2023-06-10T11:49:09;24;21;
64229;PMS5003;50547;49.498;0.092;2023-06-10T11:51:40;23;20;
64229;PMS5003;50547;49.498;0.092;2023-06-10T11:54:11;23;20;
64229;PMS5003;50547;49.498;0.092;2023-06-10T11:56:41;22;19;
64229;PMS5003;50547;49.498;0.092;2023-06-10T11:59:10;22;19;
64229;PMS5003;50547;49.498;0.092;2023-06-10T12:01:41;23;20;
64229;PMS5003;50547;49.498;0.092;2023-06-10T12:04:12;23;20;
64229;PMS5003;50547;49.498;0.092;2023-06-10T12:06:44;23;20;
64229;PMS5003;50547;49.498;0.092;2023-06-10T12:09:15;23;20;
64229;PMS5003;50547;49.498;0.092;2023-06-10T12:12:01;24;21;
64229;PMS5003;50547;49.498;0.092;2023-06-10T12:15:04;25;22;
64229;PMS5003;50547;49.498;0.092;2023-06-10T12:17:35;23;20;
64229;PMS5003;50547;49.498;0.092;2023-06-10T12:20:06;23;20;
64229;PMS5003;50547;49.498;0.092;2023-06-10T12:22:38;23;20;
64229;PMS5003;50547;49.498;0.092;2023-06-10T12:25:09;23;20;
64229;PMS5003;50547;49.498;0.092;2023-06-10T12:27:40;23;20;
64229;PMS5003;50547;49.498;0.092;2023-06-10T12:30:19;24;21;
64229;PMS5003;50547;49.498;0.092;2023-06-10T12:32:49;23;20;
64229;PMS5003;50547;49.498;0.092;2023-06-10T12:35:20;24;21;
64229;PMS5003;50547;49.498;0.092;2023-06-10T12:37:58;23;20;
64229;PMS5003;50547;49.498;0.092;2023-06-10T12:40:29;24;21;
64229;PMS5003;50547;49.498;0.092;2023-06-10T12:43:00;24;21;
64229;PMS5003;50547;49.498;0.092;2023-06-10T12:45:31;23;20;
64229;PMS5003;50547;49.498;0.092;2023-06-10T12:48:05;22;19;
64229;PMS5003;50547;49.498;0.092;2023-06-10T12:50:35;23;20;
64229;PMS5003;50547;49.498;0.092;2023-06-10T12:53:05;22;19;
64229;PMS5003;50547;49.498;0.092;2023-06-10T12:55:34;20;17;
64229;PMS5003;50547;49.498;0.092;2023-06-10T12:58:04;20;17;
64229;PMS5003;50547;49.498;0.092;2023-06-10T13:00:33;20;17;
64229;PMS5003;50547;49.498;0.092;2023-06-10T13:03:03;20;17;
64229;PMS5003;50547;49.498;0.092;2023-06-10T13:05:32;19;17;
64229;PMS5003;50547;49.498;0.092;2023-06-10T13:08:02;18;16;
64229;PMS5003;50547;49.498;0.092;2023-06-10T13:10:31;18;16;
64229;PMS5003;50547;49.498;0.092;2023-06-10T13:13:00;18;16;
64229;PMS5003;50547;49.498;0.092;2023-06-10T13:15:29;18;16;
64229;PMS5003;50547;49.498;0.092;2023-06-10T13:17:58;18;16;
64229;PMS5003;50547;49.498;0.092;2023-06-10T13:20:28;18;16;
64229;PMS5003;50547;49.498;0.092;2023-06-10T13:22:57;17;15;
64229;PMS5003;50547;49.498;0.092;2023-06-10T13:25:26;18;16;
64229;PMS5003;50547;49.498;0.092;2023-06-10T13:27:55;15;14;
64229;PMS5003;50547;49.498;0.092;2023-06-10T13:30:24;14;14;
64229;PMS5003;50547;49.498;0.092;2023-06-10T13:33:23;14;14;
64229;PMS5003;50547;49.498;0.092;2023-06-10T13:35:52;15;14;
64229;PMS5003;50547;49.498;0.092;2023-06-10T13:38:21;15;14;
64229;PMS5003;50547;49.498;0.092;2023-06-10T13:40:50;14;14;
64229;PMS5003;50547;49.498;0.092;2023-06-10T13:43:20;14;14;
64229;PMS5003;50547;49.498;0.092;2023-06-10T13:45:49;14;14;
64229;PMS5003;50547;49.498;0.092;2023-06-10T13:48:18;14;14;
64229;PMS5003;50547;49.498;0.092;2023-06-10T13:50:47;15;14;
64229;PMS5003;50547;49.498;0.092;2023-06-10T13:53:16;17;15;
64229;PMS5003;50547;49.498;0.092;2023-06-10T13:55:46;18;16;
64229;PMS5003;50547;49.498;0.092;2023-06-10T13:58:15;17;15;
64229;PMS5003;50547;49.498;0.092;2023-06-10T14:00:44;15;14;
64229;PMS5003;50547;49.498;0.092;2023-06-10T14:03:13;14;14;
64229;PMS5003;50547;49.498;0.092;2023-06-10T14:05:42;17;15;
64229;PMS5003;50547;49.498;0.092;2023-06-10T14:08:12;14;14;
64229;PMS5003;50547;49.498;0.092;2023-06-10T14:10:41;14;14;
64229;PMS5003;50547;49.498;0.092;2023-06-10T14:13:10;15;14;
64229;PMS5003;50547;49.498;0.092;2023-06-10T14:15:39;15;14;
64229;PMS5003;50547;49.498;0.092;2023-06-10T14:18:06;14;14;
64229;PMS5003;50547;49.498;0.092;2023-06-10T14:20:35;14;14;
64229;PMS5003;50547;49.498;0.092;2023-06-10T14:23:04;15;14;
64229;PMS5003;50547;49.498;0.092;2023-06-10T14:25:33;17;15;
64229;PMS5003;50547;49.498;0.092;2023-06-10T14:28:03;17;15;
64229;PMS5003;50547;49.498;0.092;2023-06-10T14:30:32;18;16;
64229;PMS5003;50547;49.498;0.092;2023-06-10T14:33:01;18;16;
64229;PMS5003;50547;49.498;0.092;2023-06-10T14:35:30;18;16;
64229;PMS5003;50547;49.498;0.092;2023-06-10T14:38:00;18;16;
64229;PMS5003;50547;49.498;0.092;2023-06-10T14:40:29;19;17;
64229;PMS5003;50547;49.498;0.092;2023-06-10T14:42:58;20;17;
64229;PMS5003;50547;49.498;0.092;2023-06-10T14:45:27;22;19;
64229;PMS5003;50547;49.498;0.092;2023-06-10T14:47:56;23;20;
64229;PMS5003;50547;49.498;0.092;2023-06-10T14:50:26;26;23;
64229;PMS5003;50547;49.498;0.092;2023-06-10T14:52:52;24;21;
64229;PMS5003;50547;49.498;0.092;2023-06-10T14:55:21;29;25;
64229;PMS5003;50547;49.498;0.092;2023-06-10T14:57:50;29;25;
64229;PMS5003;50547;49.498;0.092;2023-06-10T15:00:20;28;24;
64229;PMS5003;50547;49.498;0.092;2023-06-10T15:02:49;27;23;
64229;PMS5003;50547;49.498;0.092;2023-06-10T15:05:18;30;26;
64229;PMS5003;50547;49.498;0.092;2023-06-10T15:07:47;29;25;
64229;PMS5003;50547;49.498;0.092;2023-06-10T15:10:17;28;24;
64229;PMS5003;50547;49.498;0.092;2023-06-10T15:12:46;30;26;
64229;PMS5003;50547;49.498;0.092;2023-06-10T15:15:20;30;26;
64229;PMS5003;50547;49.498;0.092;2023-06-10T15:17:50;31;27;
64229;PMS5003;50547;49.498;0.092;2023-06-10T15:20:20;31;27;
64229;PMS5003;50547;49.498;0.092;2023-06-10T15:22:46;30;26;
64229;PMS5003;50547;49.498;0.092;2023-06-10T15:25:15;30;26;
64229;PMS5003;50547;49.498;0.092;2023-06-10T15:27:45;27;23;
64229;PMS5003;50547;49.498;0.092;2023-06-10T15:30:14;28;24;
64229;PMS5003;50547;49.498;0.092;2023-06-10T15:32:43;31;27;
64229;PMS5003;50547;49.498;0.092;2023-06-10T15:35:12;34;29;
64229;PMS5003;50547;49.498;0.092;2023-06-10T15:37:38;27;23;
64229;PMS5003;50547;49.498;0.092;2023-06-10T15:40:08;27;23;
64229;PMS5003;50547;49.498;0.092;2023-06-10T15:42:34;25;22;
64229;PMS5003;50547;49.498;0.092;2023-06-10T15:45:03;24;21;
64229;PMS5003;50547;49.498;0.092;2023-06-10T15:47:30;25;22;
64229;PMS5003;50547;49.498;0.092;2023-06-10T15:50:00;23;20;
64229;PMS5003;50547;49.498;0.092;2023-06-10T15:52:26;24;21;
64229;PMS5003;50547;49.498;0.092;2023-06-10T15:54:55;22;19;
64229;PMS5003;50547;49.498;0.092;2023-06-10T15:57:24;27;23;
64229;PMS5003;50547;49.498;0.092;2023-06-10T15:59:50;30;26;
64229;PMS5003;50547;49.498;0.092;2023-06-10T16:02:19;30;26;
64229;PMS5003;50547;49.498;0.092;2023-06-10T16:04:49;27;23;
64229;PMS5003;50547;49.498;0.092;2023-06-10T16:07:18;18;16;
64229;PMS5003;50547;49.498;0.092;2023-06-10T16:09:47;23;20;
64229;PMS5003;50547;49.498;0.092;2023-06-10T16:12:17;26;23;
64229;PMS5003;50547;49.498;0.092;2023-06-10T16:14:46;27;23;
64229;PMS5003;50547;49.498;0.092;2023-06-10T16:17:15;25;22;
64229;PMS5003;50547;49.498;0.092;2023-06-10T16:19:44;28;24;
64229;PMS5003;50547;49.498;0.092;2023-06-10T16:22:19;27;23;
64229;PMS5003;50547;49.498;0.092;2023-06-10T16:24:48;27;23;
64229;PMS5003;50547;49.498;0.092;2023-06-10T16:27:14;28;24;
64229;PMS5003;50547;49.498;0.092;2023-06-10T16:29:43;24;21;
64229;PMS5003;50547;49.498;0.092;2023-06-10T16:32:12;23;20;
64229;PMS5003;50547;49.498;0.092;2023-06-10T16:34:38;27;23;
64229;PMS5003;50547;49.498;0.092;2023-06-10T16:37:07;31;27;